sensor_id;sensor_type;location;lat;lon;timestamp;temperature;humidity
57108;DHT22;42987;52.916;6.542;2023-03-26T00:01:31;7.80;99.90
57108;DHT22;42987;52.916;6.542;2023-03-26T00:04:05;7.70;99.90
57108;DHT22;42987;52.916;6.542;2023-03-26T00:06:32;7.70;99.90
57108;DHT22;42987;52.916;6.542;2023-03-26T00:09:05;7.70;99.90
57108;DHT22;42987;52.916;6.542;2023-03-26T00:11:33;7.60;99.90
57108;DHT22;42987;52.916;6.542;2023-03-26T00:13:59;7.60;99.90
57108;DHT22;42987;52.916;6.542;2023-03-26T00:16:29;7.60;99.90
57108;DHT22;42987;52.916;6.542;2023-03-26T00:18:56;7.60;99.90
57108;DHT22;42987;52.916;6.542;2023-03-26T00:21:24;7.60;99.90
57108;DHT22;42987;52.916;6.542;2023-03-26T00:24:01;7.60;99.90
57108;DHT22;42987;52.916;6.542;2023-03-26T00:26:30;7.60;99.90
57108;DHT22;42987;52.916;6.542;2023-03-26T00:28:57;7.60;99.90
57108;DHT22;42987;52.916;6.542;2023-03-26T00:31:23;7.50;99.90
57108;DHT22;42987;52.916;6.542;2023-03-26T00:33:51;7.50;99.90
57108;DHT22;42987;52.916;6.542;2023-03-26T00:36:18;7.60;99.90
57108;DHT22;42987;52.916;6.542;2023-03-26T00:38:45;7.60;99.90
57108;DHT22;42987;52.916;6.542;2023-03-26T00:41:14;7.60;99.90
57108;DHT22;42987;52.916;6.542;2023-03-26T00:43:49;7.60;99.90
57108;DHT22;42987;52.916;6.542;2023-03-26T00:46:16;7.50;99.90
57108;DHT22;42987;52.916;6.542;2023-03-26T00:48:43;7.50;99.90
57108;DHT22;42987;52.916;6.542;2023-03-26T00:51:10;7.50;99.90
57108;DHT22;42987;52.916;6.542;2023-03-26T00:53:36;7.50;99.90
57108;DHT22;42987;52.916;6.542;2023-03-26T00:56:04;7.50;99.90
57108;DHT22;42987;52.916;6.542;2023-03-26T00:58:31;7.40;99.90
57108;DHT22;42987;52.916;6.542;2023-03-26T01:01:02;7.40;99.90
57108;DHT22;42987;52.916;6.542;2023-03-26T01:03:31;7.40;99.90
57108;DHT22;42987;52.916;6.542;2023-03-26T01:06:05;7.30;99.90
57108;DHT22;42987;52.916;6.542;2023-03-26T01:08:45;7.30;99.90
57108;DHT22;42987;52.916;6.542;2023-03-26T01:11:26;7.30;99.90
57108;DHT22;42987;52.916;6.542;2023-03-26T01:14:10;7.20;99.90
57108;DHT22;42987;52.916;6.542;2023-03-26T01:17:18;7.20;99.90
57108;DHT22;42987;52.916;6.542;2023-03-26T01:22:19;7.20;99.90
57108;DHT22;42987;52.916;6.542;2023-03-26T01:24:46;7.10;99.90
57108;DHT22;42987;52.916;6.542;2023-03-26T01:30:04;7.00;99.90
57108;DHT22;42987;52.916;6.542;2023-03-26T01:40:33;6.80;99.90
57108;DHT22;42987;52.916;6.542;2023-03-26T01:46:01;6.80;99.90
57108;DHT22;42987;52.916;6.542;2023-03-26T01:48:35;6.70;99.90
57108;DHT22;42987;52.916;6.542;2023-03-26T01:51:02;6.70;99.90
57108;DHT22;42987;52.916;6.542;2023-03-26T01:53:28;6.60;99.90
57108;DHT22;42987;52.916;6.542;2023-03-26T02:01:27;6.50;99.90
57108;DHT22;42987;52.916;6.542;2023-03-26T02:06:41;6.50;99.90
57108;DHT22;42987;52.916;6.542;2023-03-26T02:09:11;6.40;99.90
57108;DHT22;42987;52.916;6.542;2023-03-26T02:11:39;6.40;99.90
57108;DHT22;42987;52.916;6.542;2023-03-26T02:14:07;6.50;99.90
57108;DHT22;42987;52.916;6.542;2023-03-26T02:16:33;6.50;99.90
57108;DHT22;42987;52.916;6.542;2023-03-26T02:19:02;6.50;99.90
57108;DHT22;42987;52.916;6.542;2023-03-26T02:21:28;6.60;99.90
57108;DHT22;42987;52.916;6.542;2023-03-26T02:23:58;6.60;99.90
57108;DHT22;42987;52.916;6.542;2023-03-26T02:26:31;6.60;99.90
57108;DHT22;42987;52.916;6.542;2023-03-26T02:28:58;6.60;99.90
57108;DHT22;42987;52.916;6.542;2023-03-26T02:31:24;6.60;99.90
57108;DHT22;42987;52.916;6.542;2023-03-26T02:33:51;6.70;99.90
57108;DHT22;42987;52.916;6.542;2023-03-26T02:36:18;6.70;99.90
57108;DHT22;42987;52.916;6.542;2023-03-26T02:38:53;6.70;99.90
57108;DHT22;42987;52.916;6.542;2023-03-26T02:41:19;6.70;99.90
57108;DHT22;42987;52.916;6.542;2023-03-26T02:43:45;6.70;99.90
57108;DHT22;42987;52.916;6.542;2023-03-26T02:46:11;6.70;99.90
57108;DHT22;42987;52.916;6.542;2023-03-26T02:48:37;6.70;99.90
57108;DHT22;42987;52.916;6.542;2023-03-26T02:51:03;6.70;99.90
57108;DHT22;42987;52.916;6.542;2023-03-26T02:53:29;6.80;99.90
57108;DHT22;42987;52.916;6.542;2023-03-26T02:55:56;6.80;99.90
57108;DHT22;42987;52.916;6.542;2023-03-26T02:58:22;6.80;99.90
57108;DHT22;42987;52.916;6.542;2023-03-26T03:00:52;6.80;99.90
57108;DHT22;42987;52.916;6.542;2023-03-26T03:03:22;6.80;99.90
57108;DHT22;42987;52.916;6.542;2023-03-26T03:05:53;6.90;99.90
57108;DHT22;42987;52.916;6.542;2023-03-26T03:08:24;6.90;99.90
57108;DHT22;42987;52.916;6.542;2023-03-26T03:10:59;6.90;99.90
57108;DHT22;42987;52.916;6.542;2023-03-26T03:13:26;6.90;99.90
57108;DHT22;42987;52.916;6.542;2023-03-26T03:15:52;6.90;99.90
57108;DHT22;42987;52.916;6.542;2023-03-26T03:18:18;6.90;99.90
57108;DHT22;42987;52.916;6.542;2023-03-26T03:20:44;6.90;99.90
57108;DHT22;42987;52.916;6.542;2023-03-26T03:23:10;6.90;99.90
57108;DHT22;42987;52.916;6.542;2023-03-26T03:25:36;6.80;99.90
57108;DHT22;42987;52.916;6.542;2023-03-26T03:28:03;6.80;99.90
57108;DHT22;42987;52.916;6.542;2023-03-26T03:30:29;6.80;99.90
57108;DHT22;42987;52.916;6.542;2023-03-26T03:32:55;6.80;99.90
57108;DHT22;42987;52.916;6.542;2023-03-26T03:35:23;6.70;99.90
57108;DHT22;42987;52.916;6.542;2023-03-26T03:37:49;6.60;99.90
57108;DHT22;42987;52.916;6.542;2023-03-26T03:40:15;6.60;99.90
57108;DHT22;42987;52.916;6.542;2023-03-26T03:42:41;6.60;99.90
57108;DHT22;42987;52.916;6.542;2023-03-26T03:45:08;6.60;99.90
57108;DHT22;42987;52.916;6.542;2023-03-26T03:47:34;6.50;99.90
57108;DHT22;42987;52.916;6.542;2023-03-26T03:50:00;6.40;99.90
57108;DHT22;42987;52.916;6.542;2023-03-26T03:52:26;6.40;99.90
57108;DHT22;42987;52.916;6.542;2023-03-26T03:54:53;6.30;99.90
57108;DHT22;42987;52.916;6.542;2023-03-26T03:57:20;6.20;99.90
57108;DHT22;42987;52.916;6.542;2023-03-26T03:59:47;6.20;99.90
57108;DHT22;42987;52.916;6.542;2023-03-26T04:02:14;6.10;99.90
57108;DHT22;42987;52.916;6.542;2023-03-26T04:04:45;6.10;99.90
57108;DHT22;42987;52.916;6.542;2023-03-26T04:07:14;6.00;99.90
57108;DHT22;42987;52.916;6.542;2023-03-26T04:09:40;6.00;99.90
57108;DHT22;42987;52.916;6.542;2023-03-26T04:12:06;5.80;99.90
57108;DHT22;42987;52.916;6.542;2023-03-26T04:14:32;5.80;99.90
57108;DHT22;42987;52.916;6.542;2023-03-26T04:16:57;5.80;99.90
57108;DHT22;42987;52.916;6.542;2023-03-26T04:19:23;5.80;99.90
57108;DHT22;42987;52.916;6.542;2023-03-26T04:21:51;5.70;99.90
57108;DHT22;42987;52.916;6.542;2023-03-26T04:24:19;5.80;99.90
57108;DHT22;42987;52.916;6.542;2023-03-26T04:26:47;5.80;99.90
57108;DHT22;42987;52.916;6.542;2023-03-26T04:29:15;5.80;99.90
57108;DHT22;42987;52.916;6.542;2023-03-26T04:31:42;5.70;99.90
57108;DHT22;42987;52.916;6.542;2023-03-26T04:34:20;5.70;99.90
57108;DHT22;42987;52.916;6.542;2023-03-26T04:36:48;5.70;99.90
57108;DHT22;42987;52.916;6.542;2023-03-26T04:39:16;5.70;99.90
57108;DHT22;42987;52.916;6.542;2023-03-26T04:41:42;5.70;99.90
57108;DHT22;42987;52.916;6.542;2023-03-26T04:44:08;5.70;99.90
57108;DHT22;42987;52.916;6.542;2023-03-26T04:46:34;5.80;99.90
57108;DHT22;42987;52.916;6.542;2023-03-26T04:49:02;5.80;99.90
57108;DHT22;42987;52.916;6.542;2023-03-26T04:51:34;5.80;99.90
57108;DHT22;42987;52.916;6.542;2023-03-26T04:54:03;5.80;99.90
57108;DHT22;42987;52.916;6.542;2023-03-26T04:59:00;5.90;99.90
57108;DHT22;42987;52.916;6.542;2023-03-26T05:01:27;5.90;99.90
57108;DHT22;42987;52.916;6.542;2023-03-26T05:03:53;5.90;99.90
57108;DHT22;42987;52.916;6.542;2023-03-26T05:06:19;5.90;99.90
57108;DHT22;42987;52.916;6.542;2023-03-26T05:08:46;6.00;99.90
57108;DHT22;42987;52.916;6.542;2023-03-26T05:11:12;6.00;99.90
57108;DHT22;42987;52.916;6.542;2023-03-26T05:13:38;6.00;99.90
57108;DHT22;42987;52.916;6.542;2023-03-26T05:16:09;6.00;99.90
57108;DHT22;42987;52.916;6.542;2023-03-26T05:18:35;6.00;99.90
57108;DHT22;42987;52.916;6.542;2023-03-26T05:21:02;6.00;99.90
57108;DHT22;42987;52.916;6.542;2023-03-26T05:23:28;6.10;99.90
57108;DHT22;42987;52.916;6.542;2023-03-26T05:25:54;6.10;99.90
57108;DHT22;42987;52.916;6.542;2023-03-26T05:28:20;6.10;99.90
57108;DHT22;42987;52.916;6.542;2023-03-26T05:30:49;6.10;99.90
57108;DHT22;42987;52.916;6.542;2023-03-26T05:33:18;6.10;99.90
57108;DHT22;42987;52.916;6.542;2023-03-26T05:35:44;6.10;99.90
57108;DHT22;42987;52.916;6.542;2023-03-26T05:38:10;6.20;99.90
57108;DHT22;42987;52.916;6.542;2023-03-26T05:40:39;6.10;99.90
57108;DHT22;42987;52.916;6.542;2023-03-26T05:43:05;6.20;99.90
57108;DHT22;42987;52.916;6.542;2023-03-26T05:45:31;6.10;99.90
57108;DHT22;42987;52.916;6.542;2023-03-26T05:47:57;6.20;99.90
57108;DHT22;42987;52.916;6.542;2023-03-26T05:50:22;6.20;99.90
57108;DHT22;42987;52.916;6.542;2023-03-26T05:52:48;6.20;99.90
57108;DHT22;42987;52.916;6.542;2023-03-26T05:55:14;6.20;99.90
57108;DHT22;42987;52.916;6.542;2023-03-26T05:57:42;6.20;99.90
57108;DHT22;42987;52.916;6.542;2023-03-26T06:00:09;6.20;99.90
57108;DHT22;42987;52.916;6.542;2023-03-26T06:02:36;6.20;99.90
57108;DHT22;42987;52.916;6.542;2023-03-26T06:05:02;6.20;99.90
57108;DHT22;42987;52.916;6.542;2023-03-26T06:07:31;6.20;99.90
57108;DHT22;42987;52.916;6.542;2023-03-26T06:09:58;6.20;99.90
57108;DHT22;42987;52.916;6.542;2023-03-26T06:12:24;6.30;99.90
57108;DHT22;42987;52.916;6.542;2023-03-26T06:14:50;6.30;99.90
57108;DHT22;42987;52.916;6.542;2023-03-26T06:17:15;6.30;99.90
57108;DHT22;42987;52.916;6.542;2023-03-26T06:19:41;6.30;99.90
57108;DHT22;42987;52.916;6.542;2023-03-26T06:22:07;6.40;99.90
57108;DHT22;42987;52.916;6.542;2023-03-26T06:24:33;6.40;99.90
57108;DHT22;42987;52.916;6.542;2023-03-26T06:27:02;6.40;99.90
57108;DHT22;42987;52.916;6.542;2023-03-26T06:29:27;6.50;99.90
57108;DHT22;42987;52.916;6.542;2023-03-26T06:31:53;6.50;99.90
57108;DHT22;42987;52.916;6.542;2023-03-26T06:34:19;6.50;99.90
57108;DHT22;42987;52.916;6.542;2023-03-26T06:36:45;6.60;99.90
57108;DHT22;42987;52.916;6.542;2023-03-26T06:39:13;6.50;99.90
57108;DHT22;42987;52.916;6.542;2023-03-26T06:41:39;6.60;99.90
57108;DHT22;42987;52.916;6.542;2023-03-26T06:44:05;6.60;99.90
57108;DHT22;42987;52.916;6.542;2023-03-26T06:46:31;6.70;99.90
57108;DHT22;42987;52.916;6.542;2023-03-26T06:48:57;6.70;99.90
57108;DHT22;42987;52.916;6.542;2023-03-26T06:51:24;6.70;99.90
57108;DHT22;42987;52.916;6.542;2023-03-26T06:53:50;6.80;99.90
57108;DHT22;42987;52.916;6.542;2023-03-26T06:56:15;6.80;99.90
57108;DHT22;42987;52.916;6.542;2023-03-26T06:58:44;6.80;99.90
57108;DHT22;42987;52.916;6.542;2023-03-26T07:01:10;6.80;99.90
57108;DHT22;42987;52.916;6.542;2023-03-26T07:03:36;6.90;99.90
57108;DHT22;42987;52.916;6.542;2023-03-26T07:06:02;6.90;99.90
57108;DHT22;42987;52.916;6.542;2023-03-26T07:08:27;6.90;99.90
57108;DHT22;42987;52.916;6.542;2023-03-26T07:10:55;6.90;99.90
57108;DHT22;42987;52.916;6.542;2023-03-26T07:13:21;6.90;99.90
57108;DHT22;42987;52.916;6.542;2023-03-26T07:15:48;6.90;99.90
57108;DHT22;42987;52.916;6.542;2023-03-26T07:18:13;6.90;99.90
57108;DHT22;42987;52.916;6.542;2023-03-26T07:20:39;6.90;99.90
57108;DHT22;42987;52.916;6.542;2023-03-26T07:23:08;6.90;99.90
57108;DHT22;42987;52.916;6.542;2023-03-26T07:25:34;6.90;99.90
57108;DHT22;42987;52.916;6.542;2023-03-26T07:28:11;6.90;99.90
57108;DHT22;42987;52.916;6.542;2023-03-26T07:36:30;7.00;99.90
57108;DHT22;42987;52.916;6.542;2023-03-26T07:42:04;7.00;99.90
57108;DHT22;42987;52.916;6.542;2023-03-26T07:47:04;7.00;99.90
57108;DHT22;42987;52.916;6.542;2023-03-26T07:49:35;7.10;99.90
57108;DHT22;42987;52.916;6.542;2023-03-26T07:52:02;7.10;99.90
57108;DHT22;42987;52.916;6.542;2023-03-26T07:54:28;7.20;99.90
57108;DHT22;42987;52.916;6.542;2023-03-26T07:57:01;7.20;99.90
57108;DHT22;42987;52.916;6.542;2023-03-26T07:59:45;7.30;99.90
57108;DHT22;42987;52.916;6.542;2023-03-26T08:08:11;7.50;99.90
57108;DHT22;42987;52.916;6.542;2023-03-26T08:10:42;7.50;99.90
57108;DHT22;42987;52.916;6.542;2023-03-26T08:16:06;7.50;99.90
57108;DHT22;42987;52.916;6.542;2023-03-26T08:18:43;7.50;99.90
57108;DHT22;42987;52.916;6.542;2023-03-26T08:21:41;7.50;99.90
57108;DHT22;42987;52.916;6.542;2023-03-26T08:24:19;7.50;99.90
57108;DHT22;42987;52.916;6.542;2023-03-26T08:27:30;7.50;99.90
57108;DHT22;42987;52.916;6.542;2023-03-26T08:30:13;7.50;99.90
57108;DHT22;42987;52.916;6.542;2023-03-26T08:32:41;7.50;99.90
57108;DHT22;42987;52.916;6.542;2023-03-26T08:35:13;7.50;99.90
57108;DHT22;42987;52.916;6.542;2023-03-26T08:37:39;7.50;99.90
57108;DHT22;42987;52.916;6.542;2023-03-26T08:40:06;7.50;99.90
57108;DHT22;42987;52.916;6.542;2023-03-26T08:56:15;7.70;99.90
57108;DHT22;42987;52.916;6.542;2023-03-26T09:27:47;7.90;99.90
57108;DHT22;42987;52.916;6.542;2023-03-26T09:48:13;8.20;99.90
57108;DHT22;42987;52.916;6.542;2023-03-26T09:56:27;8.20;99.90
57108;DHT22;42987;52.916;6.542;2023-03-26T10:05:03;8.20;99.90
57108;DHT22;42987;52.916;6.542;2023-03-26T10:10:41;8.30;99.90
57108;DHT22;42987;52.916;6.542;2023-03-26T10:26:55;8.50;99.90
57108;DHT22;42987;52.916;6.542;2023-03-26T10:29:39;8.50;99.90
57108;DHT22;42987;52.916;6.542;2023-03-26T10:40:58;8.50;99.90
57108;DHT22;42987;52.916;6.542;2023-03-26T10:43:53;8.50;99.90
57108;DHT22;42987;52.916;6.542;2023-03-26T10:46:45;8.60;99.90
57108;DHT22;42987;52.916;6.542;2023-03-26T10:52:08;8.60;99.10
57108;DHT22;42987;52.916;6.542;2023-03-26T10:59:46;8.70;99.00
57108;DHT22;42987;52.916;6.542;2023-03-26T11:02:57;8.70;98.10
57108;DHT22;42987;52.916;6.542;2023-03-26T11:08:10;8.80;98.00
57108;DHT22;42987;52.916;6.542;2023-03-26T11:13:45;8.70;97.90
57108;DHT22;42987;52.916;6.542;2023-03-26T11:16:24;8.70;99.50
57108;DHT22;42987;52.916;6.542;2023-03-26T11:19:08;8.70;98.60
57108;DHT22;42987;52.916;6.542;2023-03-26T11:26:55;8.70;99.60
57108;DHT22;42987;52.916;6.542;2023-03-26T11:32:10;8.70;98.30
57108;DHT22;42987;52.916;6.542;2023-03-26T11:35:04;8.70;98.70
57108;DHT22;42987;52.916;6.542;2023-03-26T11:37:45;8.60;98.10
57108;DHT22;42987;52.916;6.542;2023-03-26T11:40:40;8.50;97.50
57108;DHT22;42987;52.916;6.542;2023-03-26T11:43:10;8.40;98.10
57108;DHT22;42987;52.916;6.542;2023-03-26T11:45:40;8.40;98.20
57108;DHT22;42987;52.916;6.542;2023-03-26T11:50:45;8.40;99.00
57108;DHT22;42987;52.916;6.542;2023-03-26T11:53:15;8.50;97.60
57108;DHT22;42987;52.916;6.542;2023-03-26T11:58:29;8.40;97.20
57108;DHT22;42987;52.916;6.542;2023-03-26T12:00:56;8.40;97.20
57108;DHT22;42987;52.916;6.542;2023-03-26T12:03:22;8.30;97.90
57108;DHT22;42987;52.916;6.542;2023-03-26T12:05:50;8.30;97.80
57108;DHT22;42987;52.916;6.542;2023-03-26T12:08:38;8.40;96.90
57108;DHT22;42987;52.916;6.542;2023-03-26T12:11:09;8.40;96.00
57108;DHT22;42987;52.916;6.542;2023-03-26T12:13:52;8.40;96.30
57108;DHT22;42987;52.916;6.542;2023-03-26T12:16:20;8.40;96.10
57108;DHT22;42987;52.916;6.542;2023-03-26T12:18:59;8.50;95.40
57108;DHT22;42987;52.916;6.542;2023-03-26T12:21:25;8.40;95.20
57108;DHT22;42987;52.916;6.542;2023-03-26T12:24:03;8.40;94.50
57108;DHT22;42987;52.916;6.542;2023-03-26T12:26:43;8.30;94.60
57108;DHT22;42987;52.916;6.542;2023-03-26T12:29:15;8.30;94.70
57108;DHT22;42987;52.916;6.542;2023-03-26T12:34:16;8.30;94.80
57108;DHT22;42987;52.916;6.542;2023-03-26T12:36:54;8.40;93.90
57108;DHT22;42987;52.916;6.542;2023-03-26T12:39:36;8.30;94.50
57108;DHT22;42987;52.916;6.542;2023-03-26T12:42:29;8.30;95.00
57108;DHT22;42987;52.916;6.542;2023-03-26T12:44:57;8.30;95.40
57108;DHT22;42987;52.916;6.542;2023-03-26T12:47:28;8.30;95.00
57108;DHT22;42987;52.916;6.542;2023-03-26T12:49:58;8.30;95.20
57108;DHT22;42987;52.916;6.542;2023-03-26T13:01:21;8.50;92.90
57108;DHT22;42987;52.916;6.542;2023-03-26T13:12:53;8.40;92.80
57108;DHT22;42987;52.916;6.542;2023-03-26T13:20:41;8.30;92.70
57108;DHT22;42987;52.916;6.542;2023-03-26T13:26:00;8.40;92.80
57108;DHT22;42987;52.916;6.542;2023-03-26T13:28:38;8.40;91.80
57108;DHT22;42987;52.916;6.542;2023-03-26T13:31:30;8.40;90.00
57108;DHT22;42987;52.916;6.542;2023-03-26T13:34:20;8.40;91.50
57108;DHT22;42987;52.916;6.542;2023-03-26T13:37:25;8.40;91.40
57108;DHT22;42987;52.916;6.542;2023-03-26T13:45:53;8.50;91.50
57108;DHT22;42987;52.916;6.542;2023-03-26T13:48:34;8.60;92.00
57108;DHT22;42987;52.916;6.542;2023-03-26T13:54:04;8.50;90.70
57108;DHT22;42987;52.916;6.542;2023-03-26T13:57:26;8.40;90.90
57108;DHT22;42987;52.916;6.542;2023-03-26T13:59:30;8.40;91.20
57108;DHT22;42987;52.916;6.542;2023-03-26T14:02:22;8.40;91.60
57108;DHT22;42987;52.916;6.542;2023-03-26T14:04:53;8.50;91.20
57108;DHT22;42987;52.916;6.542;2023-03-26T14:07:35;8.50;89.00
57108;DHT22;42987;52.916;6.542;2023-03-26T14:10:12;8.50;88.90
57108;DHT22;42987;52.916;6.542;2023-03-26T14:12:44;8.50;90.20
57108;DHT22;42987;52.916;6.542;2023-03-26T14:15:29;8.40;89.80
57108;DHT22;42987;52.916;6.542;2023-03-26T14:26:49;8.50;85.30
57108;DHT22;42987;52.916;6.542;2023-03-26T14:29:53;8.80;85.50
57108;DHT22;42987;52.916;6.542;2023-03-26T14:51:17;8.30;84.10
57108;DHT22;42987;52.916;6.542;2023-03-26T14:53:49;8.20;85.50
57108;DHT22;42987;52.916;6.542;2023-03-26T14:56:26;8.30;85.40
57108;DHT22;42987;52.916;6.542;2023-03-26T15:37:54;8.20;83.90
57108;DHT22;42987;52.916;6.542;2023-03-26T15:43:21;8.10;84.90
57108;DHT22;42987;52.916;6.542;2023-03-26T15:51:55;7.80;88.80
57108;DHT22;42987;52.916;6.542;2023-03-26T16:00:24;7.70;84.90
57108;DHT22;42987;52.916;6.542;2023-03-26T16:11:12;7.80;85.40
57108;DHT22;42987;52.916;6.542;2023-03-26T16:14:23;7.80;84.40
57108;DHT22;42987;52.916;6.542;2023-03-26T16:17:17;7.80;84.90
57108;DHT22;42987;52.916;6.542;2023-03-26T16:19:58;7.80;85.30
57108;DHT22;42987;52.916;6.542;2023-03-26T16:22:40;7.90;82.40
57108;DHT22;42987;52.916;6.542;2023-03-26T16:30:37;7.80;81.80
57108;DHT22;42987;52.916;6.542;2023-03-26T16:33:15;7.90;81.70
57108;DHT22;42987;52.916;6.542;2023-03-26T16:36:00;7.80;82.70
57108;DHT22;42987;52.916;6.542;2023-03-26T16:46:52;7.50;86.70
57108;DHT22;42987;52.916;6.542;2023-03-26T16:55:33;7.20;86.70
57108;DHT22;42987;52.916;6.542;2023-03-26T16:58:03;7.10;87.30
57108;DHT22;42987;52.916;6.542;2023-03-26T17:03:32;7.00;86.80
57108;DHT22;42987;52.916;6.542;2023-03-26T17:06:29;6.90;87.50
57108;DHT22;42987;52.916;6.542;2023-03-26T17:09:06;6.90;88.40
57108;DHT22;42987;52.916;6.542;2023-03-26T17:14:30;6.80;88.70
57108;DHT22;42987;52.916;6.542;2023-03-26T17:26:08;6.80;90.80
57108;DHT22;42987;52.916;6.542;2023-03-26T17:34:39;6.60;91.30
57108;DHT22;42987;52.916;6.542;2023-03-26T17:45:18;6.50;90.70
57108;DHT22;42987;52.916;6.542;2023-03-26T17:48:20;6.40;90.70
57108;DHT22;42987;52.916;6.542;2023-03-26T17:51:02;6.30;90.50
57108;DHT22;42987;52.916;6.542;2023-03-26T17:53:30;6.30;90.40
57108;DHT22;42987;52.916;6.542;2023-03-26T17:56:02;6.20;90.30
57108;DHT22;42987;52.916;6.542;2023-03-26T17:58:37;6.20;90.30
57108;DHT22;42987;52.916;6.542;2023-03-26T18:01:26;6.10;90.60
57108;DHT22;42987;52.916;6.542;2023-03-26T18:03:56;6.20;90.60
57108;DHT22;42987;52.916;6.542;2023-03-26T18:09:36;6.10;90.80
57108;DHT22;42987;52.916;6.542;2023-03-26T18:21:29;6.00;91.60
57108;DHT22;42987;52.916;6.542;2023-03-26T18:23:56;6.00;91.80
57108;DHT22;42987;52.916;6.542;2023-03-26T18:26:38;6.00;92.00
57108;DHT22;42987;52.916;6.542;2023-03-26T18:29:26;5.90;92.10
57108;DHT22;42987;52.916;6.542;2023-03-26T18:32:01;6.00;92.50
57108;DHT22;42987;52.916;6.542;2023-03-26T18:34:30;5.90;93.10
57108;DHT22;42987;52.916;6.542;2023-03-26T18:37:18;5.90;93.10
57108;DHT22;42987;52.916;6.542;2023-03-26T18:42:50;5.80;93.80
57108;DHT22;42987;52.916;6.542;2023-03-26T18:45:28;5.80;94.20
57108;DHT22;42987;52.916;6.542;2023-03-26T18:48:00;5.80;94.50
57108;DHT22;42987;52.916;6.542;2023-03-26T18:50:33;5.80;94.80
57108;DHT22;42987;52.916;6.542;2023-03-26T18:53:05;5.80;94.90
57108;DHT22;42987;52.916;6.542;2023-03-26T18:55:34;5.80;95.10
57108;DHT22;42987;52.916;6.542;2023-03-26T18:58:38;5.70;95.30
57108;DHT22;42987;52.916;6.542;2023-03-26T19:01:07;5.70;95.60
57108;DHT22;42987;52.916;6.542;2023-03-26T19:03:39;5.70;95.90
57108;DHT22;42987;52.916;6.542;2023-03-26T19:06:08;5.60;95.90
57108;DHT22;42987;52.916;6.542;2023-03-26T19:08:37;5.60;96.00
57108;DHT22;42987;52.916;6.542;2023-03-26T19:11:06;5.50;96.50
57108;DHT22;42987;52.916;6.542;2023-03-26T19:13:34;5.40;96.20
57108;DHT22;42987;52.916;6.542;2023-03-26T19:16:32;5.40;96.30
57108;DHT22;42987;52.916;6.542;2023-03-26T19:19:05;5.40;96.40
57108;DHT22;42987;52.916;6.542;2023-03-26T19:21:33;5.30;96.70
57108;DHT22;42987;52.916;6.542;2023-03-26T19:24:01;5.30;96.60
57108;DHT22;42987;52.916;6.542;2023-03-26T19:26:28;5.20;96.70
57108;DHT22;42987;52.916;6.542;2023-03-26T19:28:55;5.20;96.90
57108;DHT22;42987;52.916;6.542;2023-03-26T19:31:36;5.20;96.90
57108;DHT22;42987;52.916;6.542;2023-03-26T19:34:37;5.10;97.10
57108;DHT22;42987;52.916;6.542;2023-03-26T19:37:22;5.10;97.50
57108;DHT22;42987;52.916;6.542;2023-03-26T19:39:53;5.00;97.80
57108;DHT22;42987;52.916;6.542;2023-03-26T19:44:45;4.90;98.00
57108;DHT22;42987;52.916;6.542;2023-03-26T19:49:57;4.90;98.30
57108;DHT22;42987;52.916;6.542;2023-03-26T19:52:32;4.80;98.50
57108;DHT22;42987;52.916;6.542;2023-03-26T19:57:35;4.80;98.40
57108;DHT22;42987;52.916;6.542;2023-03-26T20:00:06;4.80;98.70
57108;DHT22;42987;52.916;6.542;2023-03-26T20:02:38;4.80;98.80
57108;DHT22;42987;52.916;6.542;2023-03-26T20:05:25;4.70;99.00
57108;DHT22;42987;52.916;6.542;2023-03-26T20:07:54;4.70;99.10
57108;DHT22;42987;52.916;6.542;2023-03-26T20:10:21;4.70;99.40
57108;DHT22;42987;52.916;6.542;2023-03-26T20:12:46;4.70;99.70
57108;DHT22;42987;52.916;6.542;2023-03-26T20:15:23;4.60;99.90
57108;DHT22;42987;52.916;6.542;2023-03-26T20:17:49;4.60;99.90
57108;DHT22;42987;52.916;6.542;2023-03-26T20:20:23;4.50;99.90
57108;DHT22;42987;52.916;6.542;2023-03-26T20:22:55;4.40;99.90
57108;DHT22;42987;52.916;6.542;2023-03-26T20:25:22;4.40;99.90
57108;DHT22;42987;52.916;6.542;2023-03-26T20:27:48;4.30;99.90
57108;DHT22;42987;52.916;6.542;2023-03-26T20:30:18;4.30;99.90
57108;DHT22;42987;52.916;6.542;2023-03-26T20:32:44;4.30;99.90
57108;DHT22;42987;52.916;6.542;2023-03-26T20:35:14;4.20;99.90
57108;DHT22;42987;52.916;6.542;2023-03-26T20:37:40;4.20;99.90
57108;DHT22;42987;52.916;6.542;2023-03-26T20:40:07;4.20;99.90
57108;DHT22;42987;52.916;6.542;2023-03-26T20:42:33;4.10;99.90
57108;DHT22;42987;52.916;6.542;2023-03-26T20:47:39;4.10;99.90
57108;DHT22;42987;52.916;6.542;2023-03-26T20:50:05;4.10;99.90
57108;DHT22;42987;52.916;6.542;2023-03-26T20:52:31;4.10;99.90
57108;DHT22;42987;52.916;6.542;2023-03-26T20:54:58;4.10;99.90
57108;DHT22;42987;52.916;6.542;2023-03-26T20:57:27;4.10;99.90
57108;DHT22;42987;52.916;6.542;2023-03-26T20:59:53;4.10;99.90
57108;DHT22;42987;52.916;6.542;2023-03-26T21:02:20;4.10;99.90
57108;DHT22;42987;52.916;6.542;2023-03-26T21:04:45;4.20;99.90
57108;DHT22;42987;52.916;6.542;2023-03-26T21:07:14;4.10;99.90
57108;DHT22;42987;52.916;6.542;2023-03-26T21:09:40;4.10;99.90
57108;DHT22;42987;52.916;6.542;2023-03-26T21:12:29;4.10;99.90
57108;DHT22;42987;52.916;6.542;2023-03-26T21:14:55;4.10;99.90
57108;DHT22;42987;52.916;6.542;2023-03-26T21:17:21;4.10;99.90
57108;DHT22;42987;52.916;6.542;2023-03-26T21:19:48;4.10;99.90
57108;DHT22;42987;52.916;6.542;2023-03-26T21:22:26;4.10;99.90
57108;DHT22;42987;52.916;6.542;2023-03-26T21:25:15;4.10;99.90
57108;DHT22;42987;52.916;6.542;2023-03-26T21:27:53;4.10;99.90
57108;DHT22;42987;52.916;6.542;2023-03-26T21:30:21;4.10;99.90
57108;DHT22;42987;52.916;6.542;2023-03-26T21:32:48;4.10;99.90
57108;DHT22;42987;52.916;6.542;2023-03-26T21:35:14;4.00;99.90
57108;DHT22;42987;52.916;6.542;2023-03-26T21:37:44;4.10;99.90
57108;DHT22;42987;52.916;6.542;2023-03-26T21:40:14;4.00;99.90
57108;DHT22;42987;52.916;6.542;2023-03-26T21:42:42;4.00;99.90
57108;DHT22;42987;52.916;6.542;2023-03-26T21:45:08;4.00;99.90
57108;DHT22;42987;52.916;6.542;2023-03-26T21:47:35;3.90;99.90
57108;DHT22;42987;52.916;6.542;2023-03-26T21:50:02;3.90;99.90
57108;DHT22;42987;52.916;6.542;2023-03-26T21:52:28;3.80;99.90
57108;DHT22;42987;52.916;6.542;2023-03-26T21:55:02;3.80;99.90
57108;DHT22;42987;52.916;6.542;2023-03-26T22:00:20;3.70;99.90
57108;DHT22;42987;52.916;6.542;2023-03-26T22:05:41;3.60;99.90
57108;DHT22;42987;52.916;6.542;2023-03-26T22:08:26;3.60;99.90
57108;DHT22;42987;52.916;6.542;2023-03-26T22:10:53;3.40;99.90
57108;DHT22;42987;52.916;6.542;2023-03-26T22:13:19;3.40;99.90
57108;DHT22;42987;52.916;6.542;2023-03-26T22:15:45;3.40;99.90
57108;DHT22;42987;52.916;6.542;2023-03-26T22:18:11;3.40;99.90
57108;DHT22;42987;52.916;6.542;2023-03-26T22:20:39;3.30;99.90
57108;DHT22;42987;52.916;6.542;2023-03-26T22:23:07;3.30;99.90
57108;DHT22;42987;52.916;6.542;2023-03-26T22:25:34;3.20;99.90
57108;DHT22;42987;52.916;6.542;2023-03-26T22:28:00;3.20;99.90
57108;DHT22;42987;52.916;6.542;2023-03-26T22:30:26;3.20;99.90
57108;DHT22;42987;52.916;6.542;2023-03-26T22:32:52;3.10;99.90